Terminal Aerodrome Forecast
Issued by NWS

Home | Current Version | Previous Version | Graphics & Text | Print | Product List | Glossary On
Versions: 1 2 3 4 5 6 7 8 9 10 11 12 13 14 15 16 17
000
FTUS43 KMPX 250524
TAFAXN
TAF
KAXN 250524Z 2506/2606 32004KT P6SM SKC
     FM250800 VRB02KT 3SM BR BKN250
     FM251230 14004KT P6SM SCT250
     FM251600 18009KT P6SM BKN200=

USA.gov is the U.S. government's official web portal to all federal, state and local government web resources and services.